Tetney, United Kingdom
Current Conditions -  °F | °C
As of 6:50 AM on Friday 31 Oct 2014 (Local Time) from EGXS Reporting Station
Broken Clouds Broken Clouds  
Wind Chill: 13°   Ceiling: 3500
Heat Index: 13°   Visibility: 1.6mi
Dew Point: 12°   Wind: 8mph
Humidity: 94%   Direction: 180°S
Pressure: 29.97"   Gusts: NA
Location:  53.49°N, 0.02°W
Report Text: EGXS 310650Z AUTO 18007KT 2700 // BKN035/// BKN150/// 13/12 Q1015
Loading
Personal Weather Stations






























Interactive Weather Map
Tropical Storm Tracking
New forecast layout! Learn more

10-Day Weather Forecast

Advertisements
Track Severe Weather on mobile